sensor_id;sensor_type;location;lat;lon;timestamp;temperature;humidity
1337;DHT22;662;48.814;9.318;2023-04-01T00:02:24;11.20;63.30
1337;DHT22;662;48.814;9.318;2023-04-01T00:04:50;11.20;63.60
1337;DHT22;662;48.814;9.318;2023-04-01T00:07:15;11.20;63.70
1337;DHT22;662;48.814;9.318;2023-04-01T00:09:41;11.10;64.60
1337;DHT22;662;48.814;9.318;2023-04-01T00:12:07;11.20;63.90
1337;DHT22;662;48.814;9.318;2023-04-01T00:14:32;11.10;64.10
1337;DHT22;662;48.814;9.318;2023-04-01T00:16:58;11.10;64.10
1337;DHT22;662;48.814;9.318;2023-04-01T00:19:23;11.10;64.30
1337;DHT22;662;48.814;9.318;2023-04-01T00:21:49;11.10;64.20
1337;DHT22;662;48.814;9.318;2023-04-01T00:24:15;11.10;64.30
1337;DHT22;662;48.814;9.318;2023-04-01T00:26:41;11.10;64.40
1337;DHT22;662;48.814;9.318;2023-04-01T00:29:07;11.10;64.50
1337;DHT22;662;48.814;9.318;2023-04-01T00:31:33;11.10;64.40
1337;DHT22;662;48.814;9.318;2023-04-01T00:33:59;11.20;64.20
1337;DHT22;662;48.814;9.318;2023-04-01T00:36:25;11.20;64.40
1337;DHT22;662;48.814;9.318;2023-04-01T00:38:51;11.20;64.50
1337;DHT22;662;48.814;9.318;2023-04-01T00:41:18;11.20;64.50
1337;DHT22;662;48.814;9.318;2023-04-01T00:43:48;11.20;64.60
1337;DHT22;662;48.814;9.318;2023-04-01T00:46:14;11.20;64.50
1337;DHT22;662;48.814;9.318;2023-04-01T00:48:45;11.20;64.60
1337;DHT22;662;48.814;9.318;2023-04-01T00:51:25;11.10;64.60
1337;DHT22;662;48.814;9.318;2023-04-01T00:53:53;11.10;64.70
1337;DHT22;662;48.814;9.318;2023-04-01T00:56:51;11.10;64.80
1337;DHT22;662;48.814;9.318;2023-04-01T00:59:25;11.10;65.00
1337;DHT22;662;48.814;9.318;2023-04-01T01:01:51;11.10;65.00
1337;DHT22;662;48.814;9.318;2023-04-01T01:13:03;11.10;64.90
1337;DHT22;662;48.814;9.318;2023-04-01T01:15:46;11.10;65.00
1337;DHT22;662;48.814;9.318;2023-04-01T01:18:26;11.10;65.80
1337;DHT22;662;48.814;9.318;2023-04-01T01:21:07;11.10;65.20
1337;DHT22;662;48.814;9.318;2023-04-01T01:24:13;11.10;65.50
1337;DHT22;662;48.814;9.318;2023-04-01T01:29:31;11.10;65.60
1337;DHT22;662;48.814;9.318;2023-04-01T01:34:35;11.10;64.90
1337;DHT22;662;48.814;9.318;2023-04-01T01:37:10;11.10;64.70
1337;DHT22;662;48.814;9.318;2023-04-01T01:39:37;11.10;65.00
1337;DHT22;662;48.814;9.318;2023-04-01T01:42:07;11.20;64.50
1337;DHT22;662;48.814;9.318;2023-04-01T01:44:35;11.20;64.90
1337;DHT22;662;48.814;9.318;2023-04-01T01:47:01;11.20;65.30
1337;DHT22;662;48.814;9.318;2023-04-01T01:49:28;11.20;65.50
1337;DHT22;662;48.814;9.318;2023-04-01T01:51:56;11.10;65.80
1337;DHT22;662;48.814;9.318;2023-04-01T01:54:21;11.10;66.00
1337;DHT22;662;48.814;9.318;2023-04-01T01:56:51;11.10;66.60
1337;DHT22;662;48.814;9.318;2023-04-01T01:59:19;11.10;66.80
1337;DHT22;662;48.814;9.318;2023-04-01T02:01:50;11.00;67.10
1337;DHT22;662;48.814;9.318;2023-04-01T02:04:18;11.10;67.20
1337;DHT22;662;48.814;9.318;2023-04-01T02:06:58;11.00;67.20
1337;DHT22;662;48.814;9.318;2023-04-01T02:09:26;11.00;67.50
1337;DHT22;662;48.814;9.318;2023-04-01T02:11:56;11.00;67.70
1337;DHT22;662;48.814;9.318;2023-04-01T02:14:25;10.90;67.90
1337;DHT22;662;48.814;9.318;2023-04-01T02:19:18;10.90;68.00
1337;DHT22;662;48.814;9.318;2023-04-01T02:21:52;10.90;67.90
1337;DHT22;662;48.814;9.318;2023-04-01T02:24:19;10.90;67.90
1337;DHT22;662;48.814;9.318;2023-04-01T02:26:49;10.80;68.00
1337;DHT22;662;48.814;9.318;2023-04-01T02:29:21;10.80;68.00
1337;DHT22;662;48.814;9.318;2023-04-01T02:31:49;10.80;68.20
1337;DHT22;662;48.814;9.318;2023-04-01T02:34:16;10.80;68.50
1337;DHT22;662;48.814;9.318;2023-04-01T02:36:42;10.80;68.60
1337;DHT22;662;48.814;9.318;2023-04-01T02:39:08;10.80;68.80
1337;DHT22;662;48.814;9.318;2023-04-01T02:41:44;10.80;68.80
1337;DHT22;662;48.814;9.318;2023-04-01T02:44:12;10.80;68.70
1337;DHT22;662;48.814;9.318;2023-04-01T02:46:38;10.80;68.40
1337;DHT22;662;48.814;9.318;2023-04-01T02:49:04;10.70;67.80
1337;DHT22;662;48.814;9.318;2023-04-01T02:51:30;10.70;68.00
1337;DHT22;662;48.814;9.318;2023-04-01T02:53:56;10.70;67.90
1337;DHT22;662;48.814;9.318;2023-04-01T02:56:21;10.60;67.90
1337;DHT22;662;48.814;9.318;2023-04-01T02:58:47;10.60;67.70
1337;DHT22;662;48.814;9.318;2023-04-01T03:01:13;10.60;67.90
1337;DHT22;662;48.814;9.318;2023-04-01T03:03:39;10.60;67.80
1337;DHT22;662;48.814;9.318;2023-04-01T03:06:06;10.50;67.70
1337;DHT22;662;48.814;9.318;2023-04-01T03:08:32;10.50;67.70
1337;DHT22;662;48.814;9.318;2023-04-01T03:10:58;10.50;67.70
1337;DHT22;662;48.814;9.318;2023-04-01T03:13:23;10.50;67.60
1337;DHT22;662;48.814;9.318;2023-04-01T03:15:49;10.50;67.30
1337;DHT22;662;48.814;9.318;2023-04-01T03:18:15;10.50;67.20
1337;DHT22;662;48.814;9.318;2023-04-01T03:20:40;10.40;67.20
1337;DHT22;662;48.814;9.318;2023-04-01T03:23:07;10.40;67.00
1337;DHT22;662;48.814;9.318;2023-04-01T03:25:33;10.40;67.00
1337;DHT22;662;48.814;9.318;2023-04-01T03:27:59;10.40;66.60
1337;DHT22;662;48.814;9.318;2023-04-01T03:30:25;10.40;66.40
1337;DHT22;662;48.814;9.318;2023-04-01T03:32:51;10.40;66.50
1337;DHT22;662;48.814;9.318;2023-04-01T03:35:17;10.40;66.30
1337;DHT22;662;48.814;9.318;2023-04-01T03:37:43;10.40;66.20
1337;DHT22;662;48.814;9.318;2023-04-01T03:40:09;10.40;66.30
1337;DHT22;662;48.814;9.318;2023-04-01T03:42:35;10.40;66.30
1337;DHT22;662;48.814;9.318;2023-04-01T03:45:02;10.40;66.10
1337;DHT22;662;48.814;9.318;2023-04-01T03:47:28;10.40;66.10
1337;DHT22;662;48.814;9.318;2023-04-01T03:49:54;10.40;65.90
1337;DHT22;662;48.814;9.318;2023-04-01T03:52:20;10.40;66.00
1337;DHT22;662;48.814;9.318;2023-04-01T03:54:45;10.40;66.10
1337;DHT22;662;48.814;9.318;2023-04-01T03:57:11;10.40;65.60
1337;DHT22;662;48.814;9.318;2023-04-01T03:59:37;10.40;65.40
1337;DHT22;662;48.814;9.318;2023-04-01T04:02:02;10.40;65.40
1337;DHT22;662;48.814;9.318;2023-04-01T04:04:28;10.40;65.20
1337;DHT22;662;48.814;9.318;2023-04-01T04:06:57;10.40;65.10
1337;DHT22;662;48.814;9.318;2023-04-01T04:09:23;10.40;65.10
1337;DHT22;662;48.814;9.318;2023-04-01T04:11:49;10.40;65.00
1337;DHT22;662;48.814;9.318;2023-04-01T04:14:15;10.40;64.80
1337;DHT22;662;48.814;9.318;2023-04-01T04:16:41;10.40;64.60
1337;DHT22;662;48.814;9.318;2023-04-01T04:19:07;10.40;64.60
1337;DHT22;662;48.814;9.318;2023-04-01T04:21:32;10.40;64.60
1337;DHT22;662;48.814;9.318;2023-04-01T04:23:59;10.30;64.30
1337;DHT22;662;48.814;9.318;2023-04-01T04:26:25;10.30;64.40
1337;DHT22;662;48.814;9.318;2023-04-01T04:28:51;10.30;64.50
1337;DHT22;662;48.814;9.318;2023-04-01T04:31:22;10.30;64.50
1337;DHT22;662;48.814;9.318;2023-04-01T04:33:48;10.30;64.60
1337;DHT22;662;48.814;9.318;2023-04-01T04:36:13;10.30;64.50
1337;DHT22;662;48.814;9.318;2023-04-01T04:38:39;10.30;64.70
1337;DHT22;662;48.814;9.318;2023-04-01T04:41:12;10.20;65.20
1337;DHT22;662;48.814;9.318;2023-04-01T04:43:39;10.20;64.50
1337;DHT22;662;48.814;9.318;2023-04-01T04:46:06;10.20;64.60
1337;DHT22;662;48.814;9.318;2023-04-01T04:48:32;10.10;64.70
1337;DHT22;662;48.814;9.318;2023-04-01T04:50:58;10.10;64.80
1337;DHT22;662;48.814;9.318;2023-04-01T04:53:23;10.10;64.90
1337;DHT22;662;48.814;9.318;2023-04-01T04:55:50;10.10;65.00
1337;DHT22;662;48.814;9.318;2023-04-01T04:58:17;10.10;65.00
1337;DHT22;662;48.814;9.318;2023-04-01T05:00:43;10.10;65.10
1337;DHT22;662;48.814;9.318;2023-04-01T05:03:09;10.10;65.30
1337;DHT22;662;48.814;9.318;2023-04-01T05:05:35;10.00;65.40
1337;DHT22;662;48.814;9.318;2023-04-01T05:08:01;10.00;65.60
1337;DHT22;662;48.814;9.318;2023-04-01T05:10:27;10.00;65.80
1337;DHT22;662;48.814;9.318;2023-04-01T05:12:54;10.00;65.90
1337;DHT22;662;48.814;9.318;2023-04-01T05:15:20;10.10;65.90
1337;DHT22;662;48.814;9.318;2023-04-01T05:17:46;10.10;66.10
1337;DHT22;662;48.814;9.318;2023-04-01T05:20:13;10.10;66.20
1337;DHT22;662;48.814;9.318;2023-04-01T05:22:39;10.10;66.20
1337;DHT22;662;48.814;9.318;2023-04-01T05:25:05;10.10;66.30
1337;DHT22;662;48.814;9.318;2023-04-01T05:27:30;10.10;66.30
1337;DHT22;662;48.814;9.318;2023-04-01T05:29:57;10.10;66.30
1337;DHT22;662;48.814;9.318;2023-04-01T05:32:22;10.10;66.30
1337;DHT22;662;48.814;9.318;2023-04-01T05:34:51;10.10;66.40
1337;DHT22;662;48.814;9.318;2023-04-01T05:37:16;10.20;66.50
1337;DHT22;662;48.814;9.318;2023-04-01T05:39:42;10.20;66.60
1337;DHT22;662;48.814;9.318;2023-04-01T05:42:08;10.20;66.60
1337;DHT22;662;48.814;9.318;2023-04-01T05:44:35;10.20;66.50
1337;DHT22;662;48.814;9.318;2023-04-01T05:47:01;10.30;66.50
1337;DHT22;662;48.814;9.318;2023-04-01T05:49:27;10.30;66.40
1337;DHT22;662;48.814;9.318;2023-04-01T05:51:52;10.30;66.30
1337;DHT22;662;48.814;9.318;2023-04-01T05:54:18;10.30;66.20
1337;DHT22;662;48.814;9.318;2023-04-01T05:56:44;10.40;66.00
1337;DHT22;662;48.814;9.318;2023-04-01T05:59:10;10.40;65.90
1337;DHT22;662;48.814;9.318;2023-04-01T06:01:36;10.50;65.60
1337;DHT22;662;48.814;9.318;2023-04-01T06:04:02;10.50;65.30
1337;DHT22;662;48.814;9.318;2023-04-01T06:06:30;10.50;65.10
1337;DHT22;662;48.814;9.318;2023-04-01T06:09:04;10.60;65.00
1337;DHT22;662;48.814;9.318;2023-04-01T06:25:27;11.00;63.30
1337;DHT22;662;48.814;9.318;2023-04-01T06:28:22;11.00;62.70
1337;DHT22;662;48.814;9.318;2023-04-01T06:31:03;11.10;62.70
1337;DHT22;662;48.814;9.318;2023-04-01T06:33:55;11.20;62.20
1337;DHT22;662;48.814;9.318;2023-04-01T06:36:45;11.20;61.90
1337;DHT22;662;48.814;9.318;2023-04-01T06:39:29;11.30;61.70
1337;DHT22;662;48.814;9.318;2023-04-01T06:42:06;11.30;61.30
1337;DHT22;662;48.814;9.318;2023-04-01T06:53:10;11.50;60.40
1337;DHT22;662;48.814;9.318;2023-04-01T06:55:35;11.50;60.20
1337;DHT22;662;48.814;9.318;2023-04-01T06:58:05;11.50;60.60
1337;DHT22;662;48.814;9.318;2023-04-01T07:00:40;11.50;59.80
1337;DHT22;662;48.814;9.318;2023-04-01T07:05:40;11.50;60.00
1337;DHT22;662;48.814;9.318;2023-04-01T07:08:10;11.60;60.00
1337;DHT22;662;48.814;9.318;2023-04-01T07:10:50;11.60;59.50
1337;DHT22;662;48.814;9.318;2023-04-01T07:13:26;11.60;59.70
1337;DHT22;662;48.814;9.318;2023-04-01T07:21:47;11.70;59.70
1337;DHT22;662;48.814;9.318;2023-04-01T07:24:37;11.70;59.40
1337;DHT22;662;48.814;9.318;2023-04-01T07:27:09;11.80;59.30
1337;DHT22;662;48.814;9.318;2023-04-01T07:29:34;11.80;59.60
1337;DHT22;662;48.814;9.318;2023-04-01T07:48:58;11.90;59.60
1337;DHT22;662;48.814;9.318;2023-04-01T07:51:41;11.90;59.50
1337;DHT22;662;48.814;9.318;2023-04-01T07:54:22;11.80;59.60
1337;DHT22;662;48.814;9.318;2023-04-01T07:57:12;11.80;59.80
1337;DHT22;662;48.814;9.318;2023-04-01T08:03:23;11.80;59.60
1337;DHT22;662;48.814;9.318;2023-04-01T08:06:00;11.90;59.70
1337;DHT22;662;48.814;9.318;2023-04-01T08:16:17;11.90;59.60
1337;DHT22;662;48.814;9.318;2023-04-01T08:21:45;11.90;59.50
1337;DHT22;662;48.814;9.318;2023-04-01T08:24:33;11.90;59.40
1337;DHT22;662;48.814;9.318;2023-04-01T08:27:03;11.90;59.70
1337;DHT22;662;48.814;9.318;2023-04-01T08:29:39;11.90;59.80
1337;DHT22;662;48.814;9.318;2023-04-01T08:32:10;11.90;60.00
1337;DHT22;662;48.814;9.318;2023-04-01T08:34:40;12.00;60.10
1337;DHT22;662;48.814;9.318;2023-04-01T08:37:20;12.00;59.90
1337;DHT22;662;48.814;9.318;2023-04-01T08:39:57;12.10;60.10
1337;DHT22;662;48.814;9.318;2023-04-01T08:45:21;12.10;59.80
1337;DHT22;662;48.814;9.318;2023-04-01T08:48:08;12.10;60.00
1337;DHT22;662;48.814;9.318;2023-04-01T08:56:34;11.90;61.40
1337;DHT22;662;48.814;9.318;2023-04-01T09:29:42;11.60;63.60
1337;DHT22;662;48.814;9.318;2023-04-01T09:40:26;11.70;63.50
1337;DHT22;662;48.814;9.318;2023-04-01T09:45:47;11.90;62.80
1337;DHT22;662;48.814;9.318;2023-04-01T10:11:04;12.00;60.70
1337;DHT22;662;48.814;9.318;2023-04-01T10:22:08;12.10;59.90
1337;DHT22;662;48.814;9.318;2023-04-01T10:41:10;12.30;59.30
1337;DHT22;662;48.814;9.318;2023-04-01T11:01:01;12.20;59.10
1337;DHT22;662;48.814;9.318;2023-04-01T11:15:40;12.30;58.60
1337;DHT22;662;48.814;9.318;2023-04-01T11:26:52;12.40;58.20
1337;DHT22;662;48.814;9.318;2023-04-01T11:32:34;12.40;57.90
1337;DHT22;662;48.814;9.318;2023-04-01T11:37:51;12.60;57.80
1337;DHT22;662;48.814;9.318;2023-04-01T11:40:35;12.60;57.40
1337;DHT22;662;48.814;9.318;2023-04-01T11:43:40;12.70;57.20
1337;DHT22;662;48.814;9.318;2023-04-01T11:46:25;12.80;57.30
1337;DHT22;662;48.814;9.318;2023-04-01T11:49:07;12.90;57.20
1337;DHT22;662;48.814;9.318;2023-04-01T11:51:55;12.90;56.40
1337;DHT22;662;48.814;9.318;2023-04-01T12:03:02;13.00;56.20
1337;DHT22;662;48.814;9.318;2023-04-01T12:05:58;13.00;56.90
1337;DHT22;662;48.814;9.318;2023-04-01T12:11:51;13.10;56.70
1337;DHT22;662;48.814;9.318;2023-04-01T12:14:43;13.00;57.30
1337;DHT22;662;48.814;9.318;2023-04-01T12:17:28;13.00;56.80
1337;DHT22;662;48.814;9.318;2023-04-01T12:20:20;12.90;56.70
1337;DHT22;662;48.814;9.318;2023-04-01T12:23:13;12.90;57.40
1337;DHT22;662;48.814;9.318;2023-04-01T12:25:56;12.90;57.40
1337;DHT22;662;48.814;9.318;2023-04-01T12:28:45;12.90;57.60
1337;DHT22;662;48.814;9.318;2023-04-01T12:37:21;12.90;58.00
1337;DHT22;662;48.814;9.318;2023-04-01T12:48:49;12.80;58.70
1337;DHT22;662;48.814;9.318;2023-04-01T12:51:13;12.80;58.50
1337;DHT22;662;48.814;9.318;2023-04-01T12:56:58;12.90;58.80
1337;DHT22;662;48.814;9.318;2023-04-01T13:02:53;12.90;57.20
1337;DHT22;662;48.814;9.318;2023-04-01T13:08:29;12.90;56.60
1337;DHT22;662;48.814;9.318;2023-04-01T13:16:46;13.00;56.50
1337;DHT22;662;48.814;9.318;2023-04-01T13:19:36;13.00;56.30
1337;DHT22;662;48.814;9.318;2023-04-01T13:25:06;13.00;56.40
1337;DHT22;662;48.814;9.318;2023-04-01T13:27:46;13.10;56.00
1337;DHT22;662;48.814;9.318;2023-04-01T13:30:24;13.00;56.20
1337;DHT22;662;48.814;9.318;2023-04-01T13:33:04;13.10;56.60
1337;DHT22;662;48.814;9.318;2023-04-01T13:38:45;13.20;56.30
1337;DHT22;662;48.814;9.318;2023-04-01T13:50:01;13.20;56.40
1337;DHT22;662;48.814;9.318;2023-04-01T13:52:33;13.30;56.20
1337;DHT22;662;48.814;9.318;2023-04-01T13:55:53;13.30;56.30
1337;DHT22;662;48.814;9.318;2023-04-01T13:58:37;13.30;56.40
1337;DHT22;662;48.814;9.318;2023-04-01T14:07:32;13.20;55.80
1337;DHT22;662;48.814;9.318;2023-04-01T14:10:02;13.20;55.40
1337;DHT22;662;48.814;9.318;2023-04-01T14:16:03;13.10;56.00
1337;DHT22;662;48.814;9.318;2023-04-01T14:20:40;13.10;56.50
1337;DHT22;662;48.814;9.318;2023-04-01T14:23:20;13.10;56.50
1337;DHT22;662;48.814;9.318;2023-04-01T14:31:15;13.00;55.80
1337;DHT22;662;48.814;9.318;2023-04-01T14:36:47;13.00;56.20
1337;DHT22;662;48.814;9.318;2023-04-01T14:50:28;12.90;58.70
1337;DHT22;662;48.814;9.318;2023-04-01T15:03:24;12.70;58.70
1337;DHT22;662;48.814;9.318;2023-04-01T15:09:10;12.70;59.00
1337;DHT22;662;48.814;9.318;2023-04-01T15:14:37;12.70;59.00
1337;DHT22;662;48.814;9.318;2023-04-01T15:31:08;12.70;57.60
1337;DHT22;662;48.814;9.318;2023-04-01T15:39:18;12.80;58.00
1337;DHT22;662;48.814;9.318;2023-04-01T15:50:21;12.80;57.70
1337;DHT22;662;48.814;9.318;2023-04-01T15:55:37;12.80;57.30
1337;DHT22;662;48.814;9.318;2023-04-01T16:04:18;12.70;58.10
1337;DHT22;662;48.814;9.318;2023-04-01T16:12:18;12.80;58.20
1337;DHT22;662;48.814;9.318;2023-04-01T16:15:03;12.80;58.20
1337;DHT22;662;48.814;9.318;2023-04-01T16:17:55;12.80;57.70
1337;DHT22;662;48.814;9.318;2023-04-01T16:21:05;12.70;57.50
1337;DHT22;662;48.814;9.318;2023-04-01T16:23:47;12.70;57.70
1337;DHT22;662;48.814;9.318;2023-04-01T16:26:28;12.70;57.80
1337;DHT22;662;48.814;9.318;2023-04-01T16:37:43;12.70;57.50
1337;DHT22;662;48.814;9.318;2023-04-01T16:40:24;12.70;57.60
1337;DHT22;662;48.814;9.318;2023-04-01T16:42:56;12.70;57.20
1337;DHT22;662;48.814;9.318;2023-04-01T16:51:22;12.70;57.30
1337;DHT22;662;48.814;9.318;2023-04-01T16:54:27;12.70;57.40
1337;DHT22;662;48.814;9.318;2023-04-01T16:56:54;12.70;57.70
1337;DHT22;662;48.814;9.318;2023-04-01T16:59:27;12.70;58.20
1337;DHT22;662;48.814;9.318;2023-04-01T17:04:59;12.70;58.90
1337;DHT22;662;48.814;9.318;2023-04-01T17:13:10;12.60;58.70
1337;DHT22;662;48.814;9.318;2023-04-01T17:26:49;12.60;59.00
1337;DHT22;662;48.814;9.318;2023-04-01T17:29:28;12.60;59.10
1337;DHT22;662;48.814;9.318;2023-04-01T17:32:11;12.50;59.10
1337;DHT22;662;48.814;9.318;2023-04-01T17:43:25;12.50;59.40
1337;DHT22;662;48.814;9.318;2023-04-01T17:45:57;12.50;59.30
1337;DHT22;662;48.814;9.318;2023-04-01T18:08:26;12.50;59.30
1337;DHT22;662;48.814;9.318;2023-04-01T18:11:31;12.50;59.60
1337;DHT22;662;48.814;9.318;2023-04-01T18:22:26;12.50;61.60
1337;DHT22;662;48.814;9.318;2023-04-01T18:27:39;12.40;62.60
1337;DHT22;662;48.814;9.318;2023-04-01T18:30:35;12.40;63.10
1337;DHT22;662;48.814;9.318;2023-04-01T18:36:03;12.20;64.30
1337;DHT22;662;48.814;9.318;2023-04-01T18:39:06;12.20;64.90
1337;DHT22;662;48.814;9.318;2023-04-01T18:47:03;12.00;66.50
1337;DHT22;662;48.814;9.318;2023-04-01T18:49:44;12.00;66.20
1337;DHT22;662;48.814;9.318;2023-04-01T18:52:37;11.90;66.10
1337;DHT22;662;48.814;9.318;2023-04-01T18:55:28;11.90;65.10
1337;DHT22;662;48.814;9.318;2023-04-01T18:57:59;11.90;64.70
1337;DHT22;662;48.814;9.318;2023-04-01T19:00:36;11.90;63.90
1337;DHT22;662;48.814;9.318;2023-04-01T19:03:20;11.80;62.50
1337;DHT22;662;48.814;9.318;2023-04-01T19:05:50;11.80;61.90
1337;DHT22;662;48.814;9.318;2023-04-01T19:08:39;11.70;61.60
1337;DHT22;662;48.814;9.318;2023-04-01T19:17:00;11.60;60.70
1337;DHT22;662;48.814;9.318;2023-04-01T19:25:27;11.50;60.80
1337;DHT22;662;48.814;9.318;2023-04-01T19:30:59;11.40;61.20
1337;DHT22;662;48.814;9.318;2023-04-01T19:38:41;11.30;61.50
1337;DHT22;662;48.814;9.318;2023-04-01T19:46:41;11.20;61.80
1337;DHT22;662;48.814;9.318;2023-04-01T19:49:27;11.20;62.00
1337;DHT22;662;48.814;9.318;2023-04-01T19:55:00;11.20;62.20
1337;DHT22;662;48.814;9.318;2023-04-01T19:57:44;11.10;62.20
1337;DHT22;662;48.814;9.318;2023-04-01T20:02:50;11.10;62.50
1337;DHT22;662;48.814;9.318;2023-04-01T20:08:05;11.10;62.50
1337;DHT22;662;48.814;9.318;2023-04-01T20:10:42;11.10;62.50
1337;DHT22;662;48.814;9.318;2023-04-01T20:16:05;11.20;62.50
1337;DHT22;662;48.814;9.318;2023-04-01T20:18:57;11.20;62.50
1337;DHT22;662;48.814;9.318;2023-04-01T20:26:43;11.20;62.20
1337;DHT22;662;48.814;9.318;2023-04-01T20:29:35;11.20;62.00
1337;DHT22;662;48.814;9.318;2023-04-01T20:32:25;11.30;62.10
1337;DHT22;662;48.814;9.318;2023-04-01T20:37:40;11.30;61.90
1337;DHT22;662;48.814;9.318;2023-04-01T20:40:27;11.40;61.70
1337;DHT22;662;48.814;9.318;2023-04-01T20:43:14;11.40;61.60
1337;DHT22;662;48.814;9.318;2023-04-01T20:45:54;11.40;61.70
1337;DHT22;662;48.814;9.318;2023-04-01T20:51:31;11.40;61.30
1337;DHT22;662;48.814;9.318;2023-04-01T21:00:02;11.50;61.30
1337;DHT22;662;48.814;9.318;2023-04-01T21:08:13;11.40;61.20
1337;DHT22;662;48.814;9.318;2023-04-01T21:10:50;11.40;61.20
1337;DHT22;662;48.814;9.318;2023-04-01T21:27:20;11.40;61.80
1337;DHT22;662;48.814;9.318;2023-04-01T21:43:50;11.40;62.30
1337;DHT22;662;48.814;9.318;2023-04-01T22:00:18;11.30;62.40
1337;DHT22;662;48.814;9.318;2023-04-01T22:02:52;11.40;62.60
1337;DHT22;662;48.814;9.318;2023-04-01T22:25:19;11.20;62.50
1337;DHT22;662;48.814;9.318;2023-04-01T22:28:10;11.20;62.60
1337;DHT22;662;48.814;9.318;2023-04-01T22:31:07;11.30;62.70
1337;DHT22;662;48.814;9.318;2023-04-01T22:36:36;11.20;62.30
1337;DHT22;662;48.814;9.318;2023-04-01T22:39:09;11.30;62.10
1337;DHT22;662;48.814;9.318;2023-04-01T22:41:55;11.30;61.70
1337;DHT22;662;48.814;9.318;2023-04-01T22:44:56;11.20;61.60
1337;DHT22;662;48.814;9.318;2023-04-01T22:55:32;11.20;61.10
1337;DHT22;662;48.814;9.318;2023-04-01T22:58:05;11.30;61.10
1337;DHT22;662;48.814;9.318;2023-04-01T23:00:42;11.20;60.80
1337;DHT22;662;48.814;9.318;2023-04-01T23:03:21;11.30;60.90
1337;DHT22;662;48.814;9.318;2023-04-01T23:06:01;11.30;60.90
1337;DHT22;662;48.814;9.318;2023-04-01T23:08:49;11.30;60.70
1337;DHT22;662;48.814;9.318;2023-04-01T23:24:55;11.20;61.60
1337;DHT22;662;48.814;9.318;2023-04-01T23:27:35;11.20;60.80
1337;DHT22;662;48.814;9.318;2023-04-01T23:30:03;11.20;60.90
1337;DHT22;662;48.814;9.318;2023-04-01T23:32:29;11.30;61.00
1337;DHT22;662;48.814;9.318;2023-04-01T23:34:57;11.20;60.80
1337;DHT22;662;48.814;9.318;2023-04-01T23:37:24;11.20;60.90
1337;DHT22;662;48.814;9.318;2023-04-01T23:39:56;11.30;61.80
1337;DHT22;662;48.814;9.318;2023-04-01T23:42:32;11.20;61.10
1337;DHT22;662;48.814;9.318;2023-04-01T23:45:11;11.20;60.90
1337;DHT22;662;48.814;9.318;2023-04-01T23:47:39;11.20;60.90
1337;DHT22;662;48.814;9.318;2023-04-01T23:50:22;11.20;61.00
1337;DHT22;662;48.814;9.318;2023-04-01T23:52:53;11.20;61.20
1337;DHT22;662;48.814;9.318;2023-04-01T23:55:27;11.20;61.30
